Time;durP1;ratioP1;P1;durP2;ratioP2;P2;SDS_P1;SDS_P2;PMS_P1;PMS_P2;Temp;Humidity;BMP_temperature;BMP_pressure;BME280_temperature;BME280_humidity;BME280_pressure;Samples;Min_cycle;Max_cycle;Signal;HPM_P1;HPM_P2
2023/06/14 00:02:01;;;;;;;;;;;20.50;35.70;;;;;;5057539;28;19916;-76
2023/06/14 00:04:26;;;;;;;;;;;20.40;35.50;;;;;;5064190;28;19920;-76
2023/06/14 00:06:52;;;;;;;;;;;20.40;35.40;;;;;;5060193;28;20004;-76
2023/06/14 00:09:18;;;;;;;;;;;20.30;35.40;;;;;;5068227;28;20291;-76
2023/06/14 00:11:44;;;;;;;;;;;20.30;35.50;;;;;;5055460;28;19921;-76
2023/06/14 00:14:09;;;;;;;;;;;20.20;35.40;;;;;;5066066;28;20292;-76
2023/06/14 00:16:35;;;;;;;;;;;20.00;35.40;;;;;;5052343;28;19913;-76
2023/06/14 00:19:03;;;;;;;;;;;20.00;35.50;;;;;;5065495;28;19965;-76
2023/06/14 00:21:29;;;;;;;;;;;19.80;35.60;;;;;;5055652;28;20015;-76
2023/06/14 00:23:55;;;;;;;;;;;19.80;35.80;;;;;;5067939;28;20364;-76
2023/06/14 00:26:20;;;;;;;;;;;19.70;36.00;;;;;;5052560;28;19967;-76
2023/06/14 00:28:46;;;;;;;;;;;19.60;36.30;;;;;;5063233;28;19983;-76
2023/06/14 00:31:11;;;;;;;;;;;19.50;36.20;;;;;;5063555;28;19920;-76
2023/06/14 00:33:37;;;;;;;;;;;19.40;36.20;;;;;;5055485;28;20292;-76
2023/06/14 00:36:02;;;;;;;;;;;19.40;36.30;;;;;;5067532;28;19919;-76
2023/06/14 00:38:28;;;;;;;;;;;19.30;36.30;;;;;;5061308;28;19962;-75
2023/06/14 00:40:53;;;;;;;;;;;19.20;36.30;;;;;;5057832;28;20010;-75
2023/06/14 00:43:18;;;;;;;;;;;19.20;36.40;;;;;;5068078;28;19923;-75
2023/06/14 00:45:44;;;;;;;;;;;19.10;36.30;;;;;;5052445;28;20307;-76
2023/06/14 00:48:10;;;;;;;;;;;19.00;36.30;;;;;;5058181;28;20382;-75
2023/06/14 00:50:36;;;;;;;;;;;19.00;36.20;;;;;;5063646;28;20015;-75
2023/06/14 00:53:01;;;;;;;;;;;18.90;36.20;;;;;;5066671;28;20383;-76
2023/06/14 00:55:27;;;;;;;;;;;18.80;36.50;;;;;;5055469;28;19909;-76
2023/06/14 00:57:54;;;;;;;;;;;18.80;36.40;;;;;;5055493;28;19917;-76
2023/06/14 01:00:19;;;;;;;;;;;18.70;36.40;;;;;;5064189;28;19921;-76
2023/06/14 01:02:45;;;;;;;;;;;18.60;36.40;;;;;;5059154;28;19931;-76
2023/06/14 01:05:10;;;;;;;;;;;18.40;36.50;;;;;;5066641;28;19912;-76
2023/06/14 01:07:51;;;;;;;;;;;18.30;36.70;;;;;;5054985;28;19917;-74
2023/06/14 01:10:25;;;;;;;;;;;18.30;36.70;;;;;;5063801;28;20323;-74
2023/06/14 01:12:56;;;;;;;;;;;18.20;36.90;;;;;;5055336;28;20398;-73
2023/06/14 01:15:22;;;;;;;;;;;18.10;37.40;;;;;;5055197;28;20348;-74
2023/06/14 01:17:51;;;;;;;;;;;18.00;37.50;;;;;;5054622;28;20011;-74
2023/06/14 01:20:17;;;;;;;;;;;17.90;37.50;;;;;;5064111;28;20003;-74
2023/06/14 01:22:52;;;;;;;;;;;17.80;37.70;;;;;;5061822;28;19917;-74
2023/06/14 01:25:20;;;;;;;;;;;17.80;37.90;;;;;;5055848;28;19989;-74
2023/06/14 01:27:54;;;;;;;;;;;17.70;38.00;;;;;;5054202;28;19962;-73
2023/06/14 01:30:21;;;;;;;;;;;17.60;38.20;;;;;;5063912;28;19920;-74
2023/06/14 01:32:47;;;;;;;;;;;17.60;38.60;;;;;;5058992;28;20376;-74
2023/06/14 01:35:12;;;;;;;;;;;17.50;38.50;;;;;;5068011;28;19909;-75
2023/06/14 01:37:38;;;;;;;;;;;17.40;38.70;;;;;;5058756;28;19920;-76
2023/06/14 01:40:06;;;;;;;;;;;17.30;38.80;;;;;;5069863;28;19909;-76
2023/06/14 01:42:33;;;;;;;;;;;17.30;38.90;;;;;;5064218;28;19916;-75
2023/06/14 01:44:58;;;;;;;;;;;17.20;38.90;;;;;;5062295;28;19913;-76
2023/06/14 01:47:24;;;;;;;;;;;17.10;39.20;;;;;;5054994;28;20071;-75
2023/06/14 01:49:50;;;;;;;;;;;17.00;39.10;;;;;;5071359;28;19967;-76
2023/06/14 01:52:16;;;;;;;;;;;17.00;39.20;;;;;;5039979;28;19927;-75
2023/06/14 01:54:41;;;;;;;;;;;16.90;39.30;;;;;;5066095;28;19908;-76
2023/06/14 01:57:07;;;;;;;;;;;16.80;39.40;;;;;;5043646;28;19924;-76
2023/06/14 01:59:34;;;;;;;;;;;16.80;40.00;;;;;;5062515;28;19932;-76
2023/06/14 02:02:01;;;;;;;;;;;16.70;40.10;;;;;;5066408;28;19924;-74
2023/06/14 02:04:26;;;;;;;;;;;16.70;40.00;;;;;;5065030;28;19951;-74
2023/06/14 02:06:52;;;;;;;;;;;16.60;40.10;;;;;;5062316;28;19967;-76
2023/06/14 02:09:18;;;;;;;;;;;16.50;40.10;;;;;;5070825;28;19921;-77
2023/06/14 02:11:43;;;;;;;;;;;16.50;40.20;;;;;;5055606;28;19920;-76
2023/06/14 02:14:11;;;;;;;;;;;16.40;40.60;;;;;;5055022;28;19918;-76
2023/06/14 02:16:37;;;;;;;;;;;16.40;40.60;;;;;;5054786;28;20016;-77
2023/06/14 02:19:02;;;;;;;;;;;16.30;40.90;;;;;;5054834;28;20007;-77
2023/06/14 02:21:28;;;;;;;;;;;16.30;40.90;;;;;;5053656;28;20010;-76
2023/06/14 02:23:53;;;;;;;;;;;16.20;40.90;;;;;;5054687;28;19923;-78
2023/06/14 02:26:18;;;;;;;;;;;16.20;41.10;;;;;;5037159;28;19962;-77
2023/06/14 02:28:44;;;;;;;;;;;16.10;41.10;;;;;;5054542;28;20308;-77
2023/06/14 02:31:09;;;;;;;;;;;16.10;41.20;;;;;;5060655;28;19923;-77
2023/06/14 02:33:35;;;;;;;;;;;16.00;41.50;;;;;;5065190;28;19909;-76
2023/06/14 02:36:02;;;;;;;;;;;16.00;42.00;;;;;;5053510;28;19912;-77
2023/06/14 02:38:28;;;;;;;;;;;15.90;42.60;;;;;;5054208;28;20019;-77
2023/06/14 02:40:53;;;;;;;;;;;15.80;42.60;;;;;;5054272;28;20023;-77
2023/06/14 02:43:19;;;;;;;;;;;15.80;42.90;;;;;;5041247;28;19917;-77
2023/06/14 02:45:45;;;;;;;;;;;15.80;42.90;;;;;;5034112;28;19917;-76
2023/06/14 02:48:11;;;;;;;;;;;15.80;43.00;;;;;;5033977;28;19956;-76
2023/06/14 02:50:36;;;;;;;;;;;15.80;43.10;;;;;;5034796;28;20257;-77
2023/06/14 02:53:02;;;;;;;;;;;15.80;43.20;;;;;;5034146;28;20004;-76
2023/06/14 02:55:28;;;;;;;;;;;15.70;43.20;;;;;;5047564;28;19917;-77
2023/06/14 02:57:53;;;;;;;;;;;15.70;43.20;;;;;;5054239;28;20284;-76
2023/06/14 03:00:19;;;;;;;;;;;15.70;43.20;;;;;;5054361;28;19924;-77
2023/06/14 03:02:45;;;;;;;;;;;15.60;43.40;;;;;;5054007;28;19917;-75
2023/06/14 03:05:11;;;;;;;;;;;15.60;43.50;;;;;;5054216;28;19913;-77
2023/06/14 03:07:40;;;;;;;;;;;15.60;43.60;;;;;;5053954;28;19919;-76
2023/06/14 03:10:08;;;;;;;;;;;15.50;43.70;;;;;;5054140;28;20387;-76
2023/06/14 03:12:33;;;;;;;;;;;15.50;43.80;;;;;;5053945;28;19912;-76
2023/06/14 03:15:03;;;;;;;;;;;15.50;43.90;;;;;;5054023;28;20059;-76
2023/06/14 03:17:32;;;;;;;;;;;15.50;43.90;;;;;;5053280;28;19920;-76
2023/06/14 03:19:57;;;;;;;;;;;15.50;44.00;;;;;;5053420;28;19917;-75
2023/06/14 03:22:25;;;;;;;;;;;15.60;44.20;;;;;;5053689;28;20393;-76
2023/06/14 03:24:51;;;;;;;;;;;15.70;44.50;;;;;;5053500;28;19921;-76
2023/06/14 03:27:17;;;;;;;;;;;15.80;44.70;;;;;;5053364;28;20268;-76
2023/06/14 03:29:42;;;;;;;;;;;16.00;44.70;;;;;;5053680;28;20019;-76
2023/06/14 03:32:08;;;;;;;;;;;16.20;44.80;;;;;;5067495;28;20024;-76
2023/06/14 03:34:33;;;;;;;;;;;16.30;44.60;;;;;;5073497;28;20010;-75
2023/06/14 03:36:59;;;;;;;;;;;16.60;44.70;;;;;;5067014;28;19915;-75
2023/06/14 03:39:24;;;;;;;;;;;16.80;44.90;;;;;;5053580;28;19917;-76
2023/06/14 03:41:50;;;;;;;;;;;17.10;45.10;;;;;;5053218;28;19916;-76
2023/06/14 03:44:17;;;;;;;;;;;17.40;45.00;;;;;;5053193;28;20368;-76
2023/06/14 03:46:42;;;;;;;;;;;17.80;44.80;;;;;;5053157;28;19912;-76
2023/06/14 03:49:08;;;;;;;;;;;18.10;44.60;;;;;;5053036;28;19917;-76
2023/06/14 03:51:35;;;;;;;;;;;18.40;44.40;;;;;;5053217;28;19909;-75
2023/06/14 03:54:00;;;;;;;;;;;18.80;44.10;;;;;;5035020;28;19924;-75
2023/06/14 03:56:26;;;;;;;;;;;19.10;43.80;;;;;;5053850;28;19954;-76
2023/06/14 03:58:52;;;;;;;;;;;19.50;43.50;;;;;;5053171;28;19921;-77
2023/06/14 04:01:18;;;;;;;;;;;19.80;43.20;;;;;;5053723;28;20338;-76
2023/06/14 04:03:43;;;;;;;;;;;20.20;43.00;;;;;;5053660;28;19917;-76
2023/06/14 04:06:09;;;;;;;;;;;20.50;42.50;;;;;;5054055;28;19913;-76
2023/06/14 04:08:34;;;;;;;;;;;20.90;42.10;;;;;;5053983;28;19919;-76
2023/06/14 04:11:00;;;;;;;;;;;21.20;41.70;;;;;;5053651;28;19909;-76
2023/06/14 04:13:26;;;;;;;;;;;21.60;41.40;;;;;;5053508;28;20364;-76
2023/06/14 04:15:51;;;;;;;;;;;21.90;41.00;;;;;;5053468;28;19923;-76
2023/06/14 04:18:17;;;;;;;;;;;22.30;40.50;;;;;;5053186;28;19959;-75
2023/06/14 04:20:43;;;;;;;;;;;22.60;39.90;;;;;;5052963;28;19983;-75
2023/06/14 04:23:12;;;;;;;;;;;22.90;39.20;;;;;;5053503;28;19988;-76
2023/06/14 04:25:38;;;;;;;;;;;23.30;39.00;;;;;;5054063;28;19923;-75
2023/06/14 04:28:03;;;;;;;;;;;23.70;38.40;;;;;;5053968;28;19964;-74
2023/06/14 04:30:31;;;;;;;;;;;24.00;38.10;;;;;;5052405;28;20361;-75
2023/06/14 04:32:56;;;;;;;;;;;24.30;37.80;;;;;;5073876;28;19915;-75
2023/06/14 04:35:23;;;;;;;;;;;24.80;37.20;;;;;;5074940;28;19916;-76
2023/06/14 04:37:49;;;;;;;;;;;25.20;36.90;;;;;;5062791;28;19912;-75
2023/06/14 04:40:15;;;;;;;;;;;25.50;36.30;;;;;;5053975;28;19971;-75
2023/06/14 04:42:40;;;;;;;;;;;25.90;35.40;;;;;;5054470;28;19917;-75
2023/06/14 04:45:06;;;;;;;;;;;26.30;34.90;;;;;;5054253;28;19924;-75
2023/06/14 04:47:34;;;;;;;;;;;26.60;34.10;;;;;;5054097;28;20300;-75
2023/06/14 04:50:00;;;;;;;;;;;26.90;33.40;;;;;;5053383;28;20386;-75
2023/06/14 04:52:26;;;;;;;;;;;27.10;32.60;;;;;;5053787;28;19909;-75
2023/06/14 04:54:53;;;;;;;;;;;27.20;32.20;;;;;;5052919;28;20479;-75
2023/06/14 04:57:22;;;;;;;;;;;27.40;31.40;;;;;;5054327;28;19965;-75
2023/06/14 04:59:47;;;;;;;;;;;27.50;31.20;;;;;;5054667;28;19917;-73
2023/06/14 05:02:13;;;;;;;;;;;27.70;31.00;;;;;;5052852;28;19935;-73
2023/06/14 05:04:39;;;;;;;;;;;28.00;31.00;;;;;;5053823;28;19921;-73
2023/06/14 05:07:06;;;;;;;;;;;28.30;30.70;;;;;;5054744;28;19935;-74
2023/06/14 05:09:32;;;;;;;;;;;28.50;29.80;;;;;;5054241;28;19940;-73
2023/06/14 05:12:00;;;;;;;;;;;28.70;29.40;;;;;;5054060;28;19916;-74
2023/06/14 05:14:25;;;;;;;;;;;28.90;29.00;;;;;;5052576;28;19920;-74
2023/06/14 05:16:51;;;;;;;;;;;29.00;28.50;;;;;;5033836;28;20364;-74
2023/06/14 05:19:18;;;;;;;;;;;29.10;28.50;;;;;;5032983;28;19913;-74
2023/06/14 05:21:43;;;;;;;;;;;29.30;28.20;;;;;;5045428;28;20054;-74
2023/06/14 05:24:09;;;;;;;;;;;29.50;27.80;;;;;;5049348;28;20015;-75
2023/06/14 05:26:35;;;;;;;;;;;29.60;27.60;;;;;;5052105;28;19908;-75
2023/06/14 05:29:01;;;;;;;;;;;29.70;27.50;;;;;;5045105;28;20028;-75
2023/06/14 05:31:26;;;;;;;;;;;29.80;27.40;;;;;;5061247;28;19908;-75
2023/06/14 05:33:52;;;;;;;;;;;30.20;27.40;;;;;;5072730;28;20339;-75
2023/06/14 05:36:18;;;;;;;;;;;30.40;26.90;;;;;;5072894;28;19950;-74
2023/06/14 05:38:43;;;;;;;;;;;30.60;26.40;;;;;;5071347;28;19923;-74
2023/06/14 05:41:09;;;;;;;;;;;30.60;26.10;;;;;;5052763;28;19923;-75
2023/06/14 05:43:34;;;;;;;;;;;30.60;26.10;;;;;;5051812;28;20007;-74
2023/06/14 05:46:00;;;;;;;;;;;30.80;26.10;;;;;;5052341;28;19948;-74
2023/06/14 05:48:25;;;;;;;;;;;30.90;25.80;;;;;;5052528;28;19909;-75
2023/06/14 05:50:51;;;;;;;;;;;31.00;25.70;;;;;;5052860;28;19909;-75
2023/06/14 05:53:16;;;;;;;;;;;31.00;25.20;;;;;;5047058;28;19916;-73
2023/06/14 05:55:42;;;;;;;;;;;30.90;25.20;;;;;;5015082;28;20004;-74
2023/06/14 05:58:07;;;;;;;;;;;30.80;25.00;;;;;;5015080;28;19909;-74
2023/06/14 06:00:33;;;;;;;;;;;30.70;25.30;;;;;;5034765;28;19975;-74
2023/06/14 06:02:59;;;;;;;;;;;30.60;25.20;;;;;;5052648;28;19913;-77
2023/06/14 06:05:24;;;;;;;;;;;30.60;25.20;;;;;;5066589;28;20315;-76
2023/06/14 06:07:50;;;;;;;;;;;30.50;25.10;;;;;;5051500;28;19917;-77
2023/06/14 06:10:16;;;;;;;;;;;30.40;25.30;;;;;;5051461;28;19921;-76
2023/06/14 06:12:41;;;;;;;;;;;30.40;25.40;;;;;;5052390;28;19948;-76
2023/06/14 06:15:07;;;;;;;;;;;30.50;25.50;;;;;;5052548;28;19917;-77
2023/06/14 06:17:34;;;;;;;;;;;30.50;25.50;;;;;;5052176;28;19909;-76
2023/06/14 06:19:59;;;;;;;;;;;30.50;25.40;;;;;;5052675;28;19963;-76
2023/06/14 06:22:25;;;;;;;;;;;30.60;25.40;;;;;;5037380;28;19995;-76
2023/06/14 06:24:50;;;;;;;;;;;30.60;25.40;;;;;;5055778;28;20445;-77
2023/06/14 06:27:18;;;;;;;;;;;30.70;25.20;;;;;;5055874;28;20383;-76
2023/06/14 06:29:44;;;;;;;;;;;30.80;24.80;;;;;;5055725;28;20479;-76
2023/06/14 06:32:10;;;;;;;;;;;30.80;24.60;;;;;;5070021;28;19960;-76
2023/06/14 06:34:35;;;;;;;;;;;30.70;24.50;;;;;;5076021;28;20011;-76
2023/06/14 06:37:01;;;;;;;;;;;30.60;24.40;;;;;;5075559;28;20342;-76
2023/06/14 06:39:26;;;;;;;;;;;30.70;24.40;;;;;;5074282;28;20277;-76
2023/06/14 06:41:52;;;;;;;;;;;30.60;24.50;;;;;;5074541;28;19944;-76
2023/06/14 06:44:17;;;;;;;;;;;30.70;24.40;;;;;;5075563;28;20261;-76
2023/06/14 06:46:43;;;;;;;;;;;30.70;24.10;;;;;;5075567;28;20372;-76
2023/06/14 06:49:09;;;;;;;;;;;30.50;24.10;;;;;;5075357;28;20011;-76
2023/06/14 06:51:36;;;;;;;;;;;30.60;24.40;;;;;;5075387;28;19943;-76
2023/06/14 06:54:02;;;;;;;;;;;30.80;24.40;;;;;;5074247;28;19960;-76
2023/06/14 06:56:28;;;;;;;;;;;30.80;23.90;;;;;;5073918;28;19943;-76
2023/06/14 06:58:53;;;;;;;;;;;30.80;24.20;;;;;;5075996;28;19999;-77
2023/06/14 07:01:19;;;;;;;;;;;31.10;24.00;;;;;;5073788;28;19963;-76
2023/06/14 07:03:45;;;;;;;;;;;31.20;23.60;;;;;;5074262;28;19966;-77
2023/06/14 07:06:11;;;;;;;;;;;31.20;23.60;;;;;;5075026;28;19908;-77
2023/06/14 07:08:38;;;;;;;;;;;31.30;23.30;;;;;;5073922;28;19956;-77
2023/06/14 07:11:04;;;;;;;;;;;31.20;23.60;;;;;;5073817;28;19909;-77
2023/06/14 07:13:30;;;;;;;;;;;31.40;23.50;;;;;;5073882;28;20390;-76
2023/06/14 07:16:00;;;;;;;;;;;31.70;23.30;;;;;;5073795;28;19908;-75
2023/06/14 07:18:25;;;;;;;;;;;31.80;22.90;;;;;;5072937;28;20360;-78
2023/06/14 07:20:51;;;;;;;;;;;31.80;23.00;;;;;;5073711;28;19917;-77
2023/06/14 07:23:17;;;;;;;;;;;32.00;22.90;;;;;;5055498;28;19912;-77
2023/06/14 07:25:42;;;;;;;;;;;32.10;23.00;;;;;;5043282;28;19924;-77
2023/06/14 07:28:08;;;;;;;;;;;32.10;22.30;;;;;;5041662;28;19908;-77
2023/06/14 07:30:33;;;;;;;;;;;31.80;22.00;;;;;;5045279;28;19928;-76
2023/06/14 07:32:59;;;;;;;;;;;31.50;22.40;;;;;;5043942;28;19909;-77
2023/06/14 07:35:25;;;;;;;;;;;31.30;22.60;;;;;;5043518;28;19931;-77
2023/06/14 07:37:50;;;;;;;;;;;31.20;22.70;;;;;;5043659;28;20004;-77
2023/06/14 07:40:16;;;;;;;;;;;30.80;23.40;;;;;;5044045;28;19916;-77
2023/06/14 07:42:42;;;;;;;;;;;30.80;23.10;;;;;;5053264;28;20292;-77
2023/06/14 07:45:07;;;;;;;;;;;30.70;23.20;;;;;;5053757;28;20009;-77
2023/06/14 07:47:33;;;;;;;;;;;30.70;23.30;;;;;;5052466;28;19963;-77
2023/06/14 07:49:58;;;;;;;;;;;30.60;23.30;;;;;;5053477;28;20482;-76
2023/06/14 07:52:23;;;;;;;;;;;30.60;23.40;;;;;;5053212;28;20325;-76
2023/06/14 07:54:49;;;;;;;;;;;30.50;23.50;;;;;;5053296;28;20396;-77
2023/06/14 07:57:14;;;;;;;;;;;30.50;23.60;;;;;;5053148;28;20261;-77
2023/06/14 07:59:40;;;;;;;;;;;30.70;23.70;;;;;;5051659;28;19967;-76
2023/06/14 08:02:06;;;;;;;;;;;30.80;23.30;;;;;;5051845;28;19913;-77
2023/06/14 08:04:31;;;;;;;;;;;30.80;23.50;;;;;;5052662;28;20019;-76
2023/06/14 08:06:57;;;;;;;;;;;30.80;23.50;;;;;;5052845;28;20549;-78
2023/06/14 08:09:22;;;;;;;;;;;30.80;23.60;;;;;;5052832;28;19924;-74
2023/06/14 08:11:48;;;;;;;;;;;31.00;23.60;;;;;;5051108;28;19916;-78
2023/06/14 08:14:13;;;;;;;;;;;31.00;23.20;;;;;;5052936;28;19921;-77
2023/06/14 08:16:39;;;;;;;;;;;30.90;23.60;;;;;;5052933;28;20339;-77
2023/06/14 08:19:05;;;;;;;;;;;30.90;23.70;;;;;;5052734;28;20289;-77
2023/06/14 08:21:33;;;;;;;;;;;31.00;23.70;;;;;;5052572;28;20300;-77
2023/06/14 08:23:59;;;;;;;;;;;31.10;23.70;;;;;;5052381;28;19926;-77
2023/06/14 08:26:28;;;;;;;;;;;31.20;23.70;;;;;;5052459;28;20366;-77
2023/06/14 08:28:54;;;;;;;;;;;31.20;23.60;;;;;;5052242;28;20281;-76
2023/06/14 08:31:20;;;;;;;;;;;31.30;23.70;;;;;;5051311;28;19912;-77
2023/06/14 08:33:45;;;;;;;;;;;31.40;23.50;;;;;;5052570;28;19921;-76
2023/06/14 08:36:11;;;;;;;;;;;31.50;23.70;;;;;;5052162;28;19913;-77
2023/06/14 08:38:37;;;;;;;;;;;31.80;23.60;;;;;;5052244;28;20364;-76
2023/06/14 08:41:04;;;;;;;;;;;31.90;23.30;;;;;;5052027;28;19919;-76
2023/06/14 08:43:29;;;;;;;;;;;32.20;23.30;;;;;;5051785;28;19917;-76
2023/06/14 08:45:59;;;;;;;;;;;32.30;23.20;;;;;;5051921;28;19995;-76
2023/06/14 08:48:26;;;;;;;;;;;32.50;22.90;;;;;;5051990;28;19955;-76
2023/06/14 08:50:52;;;;;;;;;;;32.40;22.80;;;;;;5051895;28;20000;-77
2023/06/14 08:53:19;;;;;;;;;;;32.40;23.10;;;;;;5050988;28;19916;-77
2023/06/14 08:55:45;;;;;;;;;;;32.70;22.90;;;;;;5052051;28;19913;-77
2023/06/14 08:58:14;;;;;;;;;;;32.80;22.50;;;;;;5052285;28;19924;-76
2023/06/14 09:00:45;;;;;;;;;;;33.00;22.50;;;;;;5048225;28;19916;-76
2023/06/14 09:03:13;;;;;;;;;;;33.10;22.30;;;;;;5051843;28;19917;-77
2023/06/14 09:05:38;;;;;;;;;;;33.20;22.30;;;;;;5051802;28;19913;-77
2023/06/14 09:08:05;;;;;;;;;;;33.30;22.10;;;;;;5052104;28;19913;-77
2023/06/14 09:10:37;;;;;;;;;;;33.30;21.90;;;;;;5049343;28;19917;-75
2023/06/14 09:13:03;;;;;;;;;;;33.30;22.00;;;;;;5054504;28;20006;-77
2023/06/14 09:15:28;;;;;;;;;;;33.60;22.00;;;;;;5051609;28;19913;-77
2023/06/14 09:17:54;;;;;;;;;;;33.70;21.60;;;;;;5051582;28;19913;-75
2023/06/14 09:20:19;;;;;;;;;;;33.70;21.50;;;;;;5026499;28;20449;-77
2023/06/14 09:22:45;;;;;;;;;;;33.40;21.50;;;;;;5050905;28;19916;-77
2023/06/14 09:25:15;;;;;;;;;;;33.00;21.30;;;;;;5051681;28;19916;-77
2023/06/14 09:27:41;;;;;;;;;;;32.70;22.00;;;;;;5033381;28;19917;-76
2023/06/14 09:30:09;;;;;;;;;;;32.80;22.30;;;;;;5048041;28;20319;-76
2023/06/14 09:32:39;;;;;;;;;;;33.00;22.00;;;;;;5051390;28;19912;-76
2023/06/14 09:35:06;;;;;;;;;;;33.20;21.90;;;;;;5051447;28;20280;-76
2023/06/14 09:37:32;;;;;;;;;;;33.40;21.90;;;;;;5051478;28;20439;-74
2023/06/14 09:39:58;;;;;;;;;;;33.70;21.70;;;;;;5048355;28;19917;-73
2023/06/14 09:42:28;;;;;;;;;;;33.80;21.50;;;;;;5051321;28;20364;-75
2023/06/14 09:44:54;;;;;;;;;;;33.80;21.10;;;;;;5051332;28;20265;-75
2023/06/14 09:47:21;;;;;;;;;;;33.90;21.20;;;;;;5051587;28;19966;-75
2023/06/14 09:49:46;;;;;;;;;;;33.90;20.90;;;;;;5049354;28;20318;-74
2023/06/14 09:52:14;;;;;;;;;;;33.70;21.00;;;;;;5048908;28;19955;-75
2023/06/14 09:54:42;;;;;;;;;;;33.80;21.20;;;;;;5051036;28;20371;-74
2023/06/14 09:57:08;;;;;;;;;;;34.00;21.30;;;;;;5054304;28;20426;-75
2023/06/14 09:59:35;;;;;;;;;;;34.10;21.10;;;;;;5035772;28;19924;-74
2023/06/14 10:02:04;;;;;;;;;;;34.30;20.80;;;;;;5038978;28;20066;-74
2023/06/14 10:04:30;;;;;;;;;;;34.30;20.40;;;;;;5055431;28;20381;-74
2023/06/14 10:06:56;;;;;;;;;;;34.00;20.60;;;;;;5055431;28;19915;-74
2023/06/14 10:09:22;;;;;;;;;;;33.90;20.80;;;;;;5054839;28;20015;-74
2023/06/14 10:11:47;;;;;;;;;;;34.00;21.10;;;;;;5053178;28;20005;-75
2023/06/14 10:14:14;;;;;;;;;;;34.30;20.90;;;;;;5055422;28;19936;-76
2023/06/14 10:17:00;;;;;;;;;;;34.70;20.90;;;;;;5055463;28;19920;-74
2023/06/14 10:19:34;;;;;;;;;;;35.00;20.30;;;;;;5054429;28;19986;-74
2023/06/14 10:22:06;;;;;;;;;;;34.60;20.00;;;;;;5051939;28;19920;-74
2023/06/14 10:24:40;;;;;;;;;;;34.20;20.20;;;;;;5055905;28;20308;-77
2023/06/14 10:27:10;;;;;;;;;;;33.60;20.70;;;;;;5055928;28;19912;-76
2023/06/14 10:30:01;;;;;;;;;;;33.50;21.20;;;;;;5053875;28;19923;-77
2023/06/14 10:32:28;;;;;;;;;;;33.60;21.10;;;;;;5054903;28;19979;-77
2023/06/14 10:35:14;;;;;;;;;;;33.50;21.10;;;;;;5055206;28;19921;-75
2023/06/14 10:37:39;;;;;;;;;;;33.40;21.30;;;;;;5054778;28;20015;-77
2023/06/14 10:40:07;;;;;;;;;;;33.30;21.80;;;;;;5052091;28;20028;-75
2023/06/14 10:42:34;;;;;;;;;;;33.30;21.80;;;;;;5055150;28;20011;-76
2023/06/14 10:45:00;;;;;;;;;;;33.20;22.10;;;;;;5055368;28;20284;-77
2023/06/14 10:47:32;;;;;;;;;;;33.20;22.30;;;;;;5054781;28;19915;-77
2023/06/14 10:50:05;;;;;;;;;;;33.40;22.30;;;;;;5052537;28;20333;-75
2023/06/14 10:52:33;;;;;;;;;;;33.40;21.90;;;;;;5055731;28;19913;-77
2023/06/14 10:54:59;;;;;;;;;;;33.60;21.80;;;;;;5055051;28;19917;-77
2023/06/14 10:57:24;;;;;;;;;;;33.80;21.70;;;;;;5037630;28;19984;-77
2023/06/14 10:59:50;;;;;;;;;;;34.00;21.40;;;;;;5052999;28;19982;-75
2023/06/14 11:02:21;;;;;;;;;;;34.10;21.30;;;;;;5053508;28;20007;-76
2023/06/14 11:04:47;;;;;;;;;;;34.00;20.80;;;;;;5054718;28;19924;-76
2023/06/14 11:07:19;;;;;;;;;;;33.80;21.00;;;;;;5054323;28;19909;-76
2023/06/14 11:09:57;;;;;;;;;;;33.80;21.00;;;;;;5052828;28;19960;-76
2023/06/14 11:12:24;;;;;;;;;;;33.70;20.20;;;;;;5053312;28;19999;-76
2023/06/14 11:14:50;;;;;;;;;;;33.60;20.50;;;;;;5053595;28;20015;-76
2023/06/14 11:17:15;;;;;;;;;;;33.80;20.30;;;;;;5053796;28;19951;-76
2023/06/14 11:19:40;;;;;;;;;;;33.80;20.30;;;;;;5051673;28;21671;-76
2023/06/14 11:22:06;;;;;;;;;;;34.00;20.40;;;;;;5051859;28;19913;-76
2023/06/14 11:24:32;;;;;;;;;;;34.00;20.50;;;;;;5053438;28;19917;-76
2023/06/14 11:26:57;;;;;;;;;;;34.00;20.20;;;;;;5053276;28;19927;-77
2023/06/14 11:29:23;;;;;;;;;;;33.90;19.90;;;;;;5052535;28;20394;-76
2023/06/14 11:31:48;;;;;;;;;;;33.80;20.50;;;;;;5050783;28;19913;-76
2023/06/14 11:34:15;;;;;;;;;;;33.70;20.70;;;;;;5053095;28;19913;-76
2023/06/14 11:36:41;;;;;;;;;;;33.60;20.90;;;;;;5053649;28;19917;-76
2023/06/14 11:39:07;;;;;;;;;;;33.50;21.10;;;;;;5053158;28;20253;-77
2023/06/14 11:41:36;;;;;;;;;;;33.60;21.20;;;;;;5047203;28;19974;-77
2023/06/14 11:44:02;;;;;;;;;;;33.30;21.00;;;;;;5052893;28;20439;-76
2023/06/14 11:46:28;;;;;;;;;;;33.10;21.50;;;;;;5053282;28;19916;-77
2023/06/14 11:48:53;;;;;;;;;;;33.00;21.70;;;;;;5052798;28;19917;-76
2023/06/14 11:51:19;;;;;;;;;;;32.90;22.00;;;;;;5049370;28;19995;-77
2023/06/14 11:53:45;;;;;;;;;;;32.90;22.10;;;;;;5052828;28;19971;-77
2023/06/14 11:56:11;;;;;;;;;;;32.70;22.00;;;;;;5053516;28;19919;-76
2023/06/14 11:58:36;;;;;;;;;;;32.70;22.20;;;;;;5052752;28;19912;-76
2023/06/14 12:01:05;;;;;;;;;;;32.90;22.30;;;;;;5049457;28;19920;-77
2023/06/14 12:03:31;;;;;;;;;;;32.90;22.10;;;;;;5052649;28;19962;-77
2023/06/14 12:06:04;;;;;;;;;;;32.80;22.20;;;;;;5034693;28;20315;-76
2023/06/14 12:08:39;;;;;;;;;;;32.70;22.30;;;;;;5052584;28;20261;-79
2023/06/14 12:11:15;;;;;;;;;;;32.60;22.40;;;;;;5036614;28;19909;-77
2023/06/14 12:13:43;;;;;;;;;;;32.80;22.60;;;;;;5052398;28;20007;-77
2023/06/14 12:16:09;;;;;;;;;;;33.00;22.40;;;;;;5052449;28;20353;-78
2023/06/14 12:18:35;;;;;;;;;;;33.30;22.40;;;;;;5051812;28;19924;-77
2023/06/14 12:21:02;;;;;;;;;;;33.70;22.10;;;;;;5049195;28;19917;-77
2023/06/14 12:23:38;;;;;;;;;;;33.80;21.60;;;;;;5052026;28;19944;-78
2023/06/14 12:26:04;;;;;;;;;;;33.50;21.50;;;;;;5052425;28;20427;-77
2023/06/14 12:28:31;;;;;;;;;;;33.20;21.70;;;;;;5034241;28;19909;-78
2023/06/14 12:30:58;;;;;;;;;;;33.10;22.00;;;;;;5053220;28;19909;-77
2023/06/14 12:33:24;;;;;;;;;;;32.80;21.90;;;;;;5071062;28;19908;-77
2023/06/14 12:35:50;;;;;;;;;;;32.50;22.30;;;;;;5052171;28;20508;-77
2023/06/14 12:38:16;;;;;;;;;;;32.30;22.60;;;;;;5052356;28;20494;-77
2023/06/14 12:40:42;;;;;;;;;;;32.40;22.40;;;;;;5049143;28;20256;-78
2023/06/14 12:43:07;;;;;;;;;;;32.50;22.50;;;;;;5051748;28;19917;-77
2023/06/14 12:45:33;;;;;;;;;;;32.60;22.10;;;;;;5051347;28;20011;-77
2023/06/14 12:47:58;;;;;;;;;;;32.50;21.90;;;;;;5051091;28;19955;-77
2023/06/14 12:50:23;;;;;;;;;;;32.20;21.90;;;;;;5048024;28;19924;-77
2023/06/14 12:52:49;;;;;;;;;;;32.20;22.10;;;;;;5051456;28;19909;-77
2023/06/14 12:55:15;;;;;;;;;;;32.30;22.20;;;;;;5050824;28;19920;-77
2023/06/14 12:57:41;;;;;;;;;;;32.50;22.10;;;;;;5051062;28;19912;-77
2023/06/14 13:00:07;;;;;;;;;;;32.50;22.10;;;;;;5049352;28;20383;-78
2023/06/14 13:02:33;;;;;;;;;;;32.40;22.00;;;;;;5047780;28;19912;-77
2023/06/14 13:04:58;;;;;;;;;;;32.20;22.20;;;;;;5050840;28;19923;-77
2023/06/14 13:07:24;;;;;;;;;;;32.00;22.30;;;;;;5051281;28;19913;-78
2023/06/14 13:09:50;;;;;;;;;;;31.90;23.10;;;;;;5049191;28;19925;-77
2023/06/14 13:12:15;;;;;;;;;;;32.10;22.80;;;;;;5049847;28;19919;-78
2023/06/14 13:14:41;;;;;;;;;;;32.20;22.70;;;;;;5050713;28;20253;-77
2023/06/14 13:17:10;;;;;;;;;;;32.30;22.50;;;;;;5050600;28;20010;-76
2023/06/14 13:19:35;;;;;;;;;;;32.60;22.50;;;;;;5030972;28;19924;-77
2023/06/14 13:22:01;;;;;;;;;;;32.90;22.40;;;;;;5048858;28;19913;-77
2023/06/14 13:24:26;;;;;;;;;;;33.20;22.00;;;;;;5050683;28;19923;-77
2023/06/14 13:26:52;;;;;;;;;;;33.30;22.10;;;;;;5050525;28;20027;-77
2023/06/14 13:29:17;;;;;;;;;;;33.20;22.10;;;;;;5050188;28;19917;-77
2023/06/14 13:31:43;;;;;;;;;;;32.80;22.30;;;;;;5057489;28;20356;-78
2023/06/14 13:34:08;;;;;;;;;;;32.40;22.50;;;;;;5062859;28;19921;-77
2023/06/14 13:36:34;;;;;;;;;;;31.90;23.00;;;;;;5050564;28;19940;-78
2023/06/14 13:39:00;;;;;;;;;;;31.50;23.60;;;;;;5032470;28;20330;-77
2023/06/14 13:41:31;;;;;;;;;;;31.40;23.60;;;;;;5046754;28;19962;-77
2023/06/14 13:43:57;;;;;;;;;;;31.50;23.80;;;;;;4988581;28;1758045;-76
2023/06/14 13:46:22;;;;;;;;;;;31.80;23.60;;;;;;5051225;28;20343;-77
2023/06/14 13:48:48;;;;;;;;;;;32.30;23.30;;;;;;5033012;28;20272;-77
2023/06/14 13:51:13;;;;;;;;;;;32.80;22.70;;;;;;5046843;28;19955;-77
2023/06/14 13:53:39;;;;;;;;;;;32.90;22.70;;;;;;5051044;28;19932;-77
2023/06/14 13:56:04;;;;;;;;;;;32.70;22.50;;;;;;5051363;28;19908;-78
2023/06/14 13:58:30;;;;;;;;;;;32.20;22.60;;;;;;5050986;28;19919;-77
2023/06/14 14:00:55;;;;;;;;;;;31.80;23.00;;;;;;5045754;28;19913;-78
2023/06/14 14:03:21;;;;;;;;;;;31.50;23.40;;;;;;5050853;28;20042;-77
2023/06/14 14:05:46;;;;;;;;;;;31.30;23.90;;;;;;5050850;28;20003;-77
2023/06/14 14:08:12;;;;;;;;;;;31.10;24.20;;;;;;5050953;28;19913;-78
2023/06/14 14:10:38;;;;;;;;;;;30.80;24.70;;;;;;5046666;28;19924;-77
2023/06/14 14:13:03;;;;;;;;;;;30.70;25.10;;;;;;5050952;28;19916;-77